Airfield :
LOGIN :

Register | Disclaimer

   EN    FR    IT 

 










Legend :    VFR   Marginal VFR   IFR   Intensive IFR   Very Intensive IFR
Visi :
Ceiling :
>= 8 km
>= 3000ft
5 to 8 km
1000 to 3000 ft
1500m to 5 km
500 to 1000 ft
800 to 1500m
200 to 500 ft
< 800m
< 200 ft
Symbols :   Thunderstorms  Fog  Heavy snow  Heavy precipitations  Wind > 20 kt
SIGMETs :     Misc.  Thunderstorms  Icing  Turbulence  Mountain Waves  Volcanic Ashes






- Airport Elevation : 939 ft


LKKB - Kbely Air Base

CURRENT METAR :
  • 031900Z 09008KT CAVOK 25/13 Q1016 NOSIG

EXPIRED METARs :
  • 030500Z 00000KT CAVOK 16/12 Q1021 NOSIG
  • 031800Z 10006KT CAVOK 26/14 Q1016 NOSIG
  • 031700Z 12004KT 090V160 CAVOK 27/14 Q1017 NOSIG

TAF TAF LKKB
Valid from the 03 at 18:00 until the 04 at 18:00 UTC


031700Z 0318/0418 10006KT CAVOK
BECMG 0320/0322 24004KT
BECMG 0408/0410 02006KT



MET'MAP, your aeronautical weather chart ! - Copyright ORBIFLY December 2007 - Disclaimer

ORBIFLY MET'MAP TEAM :

Programming & Development : Alexandra Zaïnal
Original concept : Baudouin d'Aumeries
Technical & hardware support : Manuel Goepfert
Assistance : Marc-Olivier Méhu




SOURCES & CREDITS :

   NOAA